sensor_id;sensor_type;location;lat;lon;timestamp;pressure;altitude;pressure_sealevel;temperature;humidity
46211;BME280;52144;48.040;-1.594;2022-07-23T00:00:33;101573.78;;;18.28;89.95
46211;BME280;52144;48.040;-1.594;2022-07-23T00:03:05;101571.88;;;18.57;88.84
46211;BME280;52144;48.040;-1.594;2022-07-23T00:05:33;101566.97;;;18.50;89.14
46211;BME280;52144;48.040;-1.594;2022-07-23T00:08:04;101566.88;;;18.51;88.43
46211;BME280;52144;48.040;-1.594;2022-07-23T00:10:39;101573.00;;;18.26;90.15
46211;BME280;52144;48.040;-1.594;2022-07-23T00:13:07;101573.47;;;18.33;89.20
46211;BME280;52144;48.040;-1.594;2022-07-23T00:15:35;101565.97;;;18.38;89.24
46211;BME280;52144;48.040;-1.594;2022-07-23T00:18:03;101569.16;;;18.30;89.58
46211;BME280;52144;48.040;-1.594;2022-07-23T00:20:31;101568.41;;;18.14;90.25
46211;BME280;52144;48.040;-1.594;2022-07-23T00:22:59;101571.00;;;17.87;92.22
46211;BME280;52144;48.040;-1.594;2022-07-23T00:25:28;101563.00;;;17.71;93.74
46211;BME280;52144;48.040;-1.594;2022-07-23T00:27:57;101561.09;;;17.73;93.03
46211;BME280;52144;48.040;-1.594;2022-07-23T00:30:25;101567.25;;;17.75;94.03
46211;BME280;52144;48.040;-1.594;2022-07-23T00:32:57;101568.59;;;17.68;94.51
46211;BME280;52144;48.040;-1.594;2022-07-23T00:35:27;101571.75;;;17.74;93.96
46211;BME280;52144;48.040;-1.594;2022-07-23T00:37:56;101565.72;;;18.14;90.57
46211;BME280;52144;48.040;-1.594;2022-07-23T00:40:24;101566.97;;;18.08;90.77
46211;BME280;52144;48.040;-1.594;2022-07-23T00:42:53;101560.50;;;18.11;90.36
46211;BME280;52144;48.040;-1.594;2022-07-23T00:45:21;101560.72;;;18.08;90.57
46211;BME280;52144;48.040;-1.594;2022-07-23T00:47:49;101556.25;;;18.21;89.68
46211;BME280;52144;48.040;-1.594;2022-07-23T00:50:17;101553.06;;;18.29;89.43
46211;BME280;52144;48.040;-1.594;2022-07-23T00:52:45;101555.03;;;18.12;90.09
46211;BME280;52144;48.040;-1.594;2022-07-23T00:55:13;101554.38;;;17.94;91.68
46211;BME280;52144;48.040;-1.594;2022-07-23T00:57:41;101541.94;;;17.92;91.06
46211;BME280;52144;48.040;-1.594;2022-07-23T01:00:13;101555.22;;;17.95;90.79
46211;BME280;52144;48.040;-1.594;2022-07-23T01:02:42;101560.53;;;17.96;90.56
46211;BME280;52144;48.040;-1.594;2022-07-23T01:05:12;101561.59;;;17.94;91.06
46211;BME280;52144;48.040;-1.594;2022-07-23T01:07:41;101561.50;;;17.95;91.13
46211;BME280;52144;48.040;-1.594;2022-07-23T01:10:09;101550.78;;;17.65;92.91
46211;BME280;52144;48.040;-1.594;2022-07-23T01:12:51;101551.38;;;17.11;96.77
46211;BME280;52144;48.040;-1.594;2022-07-23T01:15:21;101547.38;;;17.33;95.39
46211;BME280;52144;48.040;-1.594;2022-07-23T01:17:49;101538.44;;;17.18;96.66
46211;BME280;52144;48.040;-1.594;2022-07-23T01:20:17;101548.91;;;17.22;96.49
46211;BME280;52144;48.040;-1.594;2022-07-23T01:22:46;101546.25;;;17.37;96.64
46211;BME280;52144;48.040;-1.594;2022-07-23T01:25:14;101534.31;;;17.55;94.50
46211;BME280;52144;48.040;-1.594;2022-07-23T01:27:42;101541.31;;;17.29;95.93
46211;BME280;52144;48.040;-1.594;2022-07-23T01:30:11;101531.97;;;17.20;96.68
46211;BME280;52144;48.040;-1.594;2022-07-23T01:32:39;101524.84;;;17.34;96.50
46211;BME280;52144;48.040;-1.594;2022-07-23T01:35:08;101526.59;;;17.35;96.76
46211;BME280;52144;48.040;-1.594;2022-07-23T01:37:36;101536.19;;;17.10;97.68
46211;BME280;52144;48.040;-1.594;2022-07-23T01:40:07;101529.09;;;17.23;96.80
46211;BME280;52144;48.040;-1.594;2022-07-23T01:42:35;101534.00;;;17.31;95.24
46211;BME280;52144;48.040;-1.594;2022-07-23T01:45:05;101527.78;;;17.45;95.09
46211;BME280;52144;48.040;-1.594;2022-07-23T01:47:33;101532.47;;;17.56;94.19
46211;BME280;52144;48.040;-1.594;2022-07-23T01:50:00;101515.47;;;17.41;94.98
46211;BME280;52144;48.040;-1.594;2022-07-23T01:52:28;101522.03;;;17.07;97.94
46211;BME280;52144;48.040;-1.594;2022-07-23T01:54:56;101518.53;;;17.49;94.93
46211;BME280;52144;48.040;-1.594;2022-07-23T01:57:25;101523.91;;;17.20;96.17
46211;BME280;52144;48.040;-1.594;2022-07-23T01:59:53;101517.34;;;17.10;96.72
46211;BME280;52144;48.040;-1.594;2022-07-23T02:02:21;101515.38;;;16.98;97.67
46211;BME280;52144;48.040;-1.594;2022-07-23T02:04:49;101514.25;;;17.02;98.47
46211;BME280;52144;48.040;-1.594;2022-07-23T02:07:16;101509.56;;;17.20;96.16
46211;BME280;52144;48.040;-1.594;2022-07-23T02:09:44;101508.81;;;17.32;94.89
46211;BME280;52144;48.040;-1.594;2022-07-23T02:12:12;101512.09;;;16.93;98.52
46211;BME280;52144;48.040;-1.594;2022-07-23T02:14:41;101515.34;;;16.83;99.44
46211;BME280;52144;48.040;-1.594;2022-07-23T02:17:09;101519.88;;;16.67;100.00
46211;BME280;52144;48.040;-1.594;2022-07-23T02:19:37;101518.81;;;16.70;99.79
46211;BME280;52144;48.040;-1.594;2022-07-23T02:22:04;101526.72;;;17.03;97.96
46211;BME280;52144;48.040;-1.594;2022-07-23T02:24:32;101521.97;;;16.62;100.00
46211;BME280;52144;48.040;-1.594;2022-07-23T02:27:00;101531.91;;;16.92;98.45
46211;BME280;52144;48.040;-1.594;2022-07-23T02:29:28;101534.00;;;16.87;97.97
46211;BME280;52144;48.040;-1.594;2022-07-23T02:31:57;101540.72;;;16.32;100.00
46211;BME280;52144;48.040;-1.594;2022-07-23T02:34:25;101542.78;;;16.58;100.00
46211;BME280;52144;48.040;-1.594;2022-07-23T02:36:53;101549.94;;;16.43;100.00
46211;BME280;52144;48.040;-1.594;2022-07-23T02:39:20;101550.75;;;16.76;100.00
46211;BME280;52144;48.040;-1.594;2022-07-23T02:41:48;101549.38;;;16.84;99.83
46211;BME280;52144;48.040;-1.594;2022-07-23T02:44:16;101547.44;;;16.87;99.83
46211;BME280;52144;48.040;-1.594;2022-07-23T02:46:44;101550.22;;;17.15;96.34
46211;BME280;52144;48.040;-1.594;2022-07-23T02:49:13;101542.66;;;17.22;95.50
46211;BME280;52144;48.040;-1.594;2022-07-23T02:51:41;101555.09;;;16.78;98.64
46211;BME280;52144;48.040;-1.594;2022-07-23T02:54:09;101560.91;;;16.87;98.27
46211;BME280;52144;48.040;-1.594;2022-07-23T02:56:37;101556.88;;;16.48;100.00
46211;BME280;52144;48.040;-1.594;2022-07-23T02:59:04;101550.34;;;16.52;100.00
46211;BME280;52144;48.040;-1.594;2022-07-23T03:01:32;101550.56;;;16.95;98.69
46211;BME280;52144;48.040;-1.594;2022-07-23T03:04:00;101550.19;;;17.01;96.53
46211;BME280;52144;48.040;-1.594;2022-07-23T03:06:29;101557.00;;;16.60;99.66
46211;BME280;52144;48.040;-1.594;2022-07-23T03:08:57;101554.09;;;16.65;100.00
46211;BME280;52144;48.040;-1.594;2022-07-23T03:11:25;101545.53;;;16.89;98.71
46211;BME280;52144;48.040;-1.594;2022-07-23T03:13:53;101549.81;;;17.07;96.54
46211;BME280;52144;48.040;-1.594;2022-07-23T03:16:21;101547.72;;;17.12;96.56
46211;BME280;52144;48.040;-1.594;2022-07-23T03:18:49;101548.91;;;17.22;95.67
46211;BME280;52144;48.040;-1.594;2022-07-23T03:21:17;101549.06;;;17.19;95.18
46211;BME280;52144;48.040;-1.594;2022-07-23T03:23:46;101547.16;;;17.21;94.78
46211;BME280;52144;48.040;-1.594;2022-07-23T03:26:14;101550.53;;;17.25;94.65
46211;BME280;52144;48.040;-1.594;2022-07-23T03:28:41;101543.56;;;17.07;96.18
46211;BME280;52144;48.040;-1.594;2022-07-23T03:31:09;101540.81;;;17.08;95.70
46211;BME280;52144;48.040;-1.594;2022-07-23T03:33:37;101542.75;;;16.74;98.67
46211;BME280;52144;48.040;-1.594;2022-07-23T03:36:05;101543.41;;;16.63;98.01
46211;BME280;52144;48.040;-1.594;2022-07-23T03:38:35;101543.06;;;16.22;100.00
46211;BME280;52144;48.040;-1.594;2022-07-23T03:41:04;101540.22;;;16.25;100.00
46211;BME280;52144;48.040;-1.594;2022-07-23T03:43:33;101532.41;;;16.04;100.00
46211;BME280;52144;48.040;-1.594;2022-07-23T03:46:00;101536.91;;;16.52;100.00
46211;BME280;52144;48.040;-1.594;2022-07-23T03:48:28;101535.31;;;16.63;98.74
46211;BME280;52144;48.040;-1.594;2022-07-23T03:50:56;101532.72;;;16.62;98.57
46211;BME280;52144;48.040;-1.594;2022-07-23T03:53:24;101532.72;;;16.62;99.10
46211;BME280;52144;48.040;-1.594;2022-07-23T03:55:52;101538.47;;;16.40;100.00
46211;BME280;52144;48.040;-1.594;2022-07-23T03:58:21;101532.38;;;16.36;100.00
46211;BME280;52144;48.040;-1.594;2022-07-23T04:00:49;101535.97;;;16.53;99.81
46211;BME280;52144;48.040;-1.594;2022-07-23T04:03:17;101536.88;;;16.68;98.76
46211;BME280;52144;48.040;-1.594;2022-07-23T04:05:44;101531.53;;;16.52;99.78
46211;BME280;52144;48.040;-1.594;2022-07-23T04:08:12;101534.28;;;16.50;99.53
46211;BME280;52144;48.040;-1.594;2022-07-23T04:10:40;101545.59;;;16.25;100.00
46211;BME280;52144;48.040;-1.594;2022-07-23T04:13:08;101543.75;;;15.78;100.00
46211;BME280;52144;48.040;-1.594;2022-07-23T04:15:37;101555.31;;;15.96;100.00
46211;BME280;52144;48.040;-1.594;2022-07-23T04:18:05;101555.50;;;16.24;100.00
46211;BME280;52144;48.040;-1.594;2022-07-23T04:20:34;101575.78;;;16.30;100.00
46211;BME280;52144;48.040;-1.594;2022-07-23T04:23:06;101566.94;;;16.44;99.90
46211;BME280;52144;48.040;-1.594;2022-07-23T04:25:34;101567.81;;;16.44;99.19
46211;BME280;52144;48.040;-1.594;2022-07-23T04:28:02;101563.09;;;16.48;98.52
46211;BME280;52144;48.040;-1.594;2022-07-23T04:30:30;101561.97;;;16.52;98.90
46211;BME280;52144;48.040;-1.594;2022-07-23T04:32:59;101562.22;;;16.16;100.00
46211;BME280;52144;48.040;-1.594;2022-07-23T04:35:27;101563.72;;;16.21;100.00
46211;BME280;52144;48.040;-1.594;2022-07-23T04:37:54;101559.81;;;16.27;100.00
46211;BME280;52144;48.040;-1.594;2022-07-23T04:40:22;101565.28;;;16.41;99.57
46211;BME280;52144;48.040;-1.594;2022-07-23T04:42:50;101554.59;;;16.40;100.00
46211;BME280;52144;48.040;-1.594;2022-07-23T04:45:18;101568.47;;;16.48;99.59
46211;BME280;52144;48.040;-1.594;2022-07-23T04:47:47;101564.50;;;16.55;98.81
46211;BME280;52144;48.040;-1.594;2022-07-23T04:50:16;101568.66;;;16.61;98.13
46211;BME280;52144;48.040;-1.594;2022-07-23T04:52:47;101563.78;;;16.68;98.24
46211;BME280;52144;48.040;-1.594;2022-07-23T04:55:16;101563.34;;;16.75;97.23
46211;BME280;52144;48.040;-1.594;2022-07-23T04:57:44;101570.03;;;16.68;96.88
46211;BME280;52144;48.040;-1.594;2022-07-23T05:00:12;101571.78;;;16.69;97.60
46211;BME280;52144;48.040;-1.594;2022-07-23T05:02:40;101573.50;;;16.70;97.39
46211;BME280;52144;48.040;-1.594;2022-07-23T05:05:08;101577.81;;;16.73;97.31
46211;BME280;52144;48.040;-1.594;2022-07-23T05:07:37;101571.09;;;16.65;96.91
46211;BME280;52144;48.040;-1.594;2022-07-23T05:10:05;101571.25;;;16.62;98.27
46211;BME280;52144;48.040;-1.594;2022-07-23T05:12:33;101571.75;;;16.85;97.27
46211;BME280;52144;48.040;-1.594;2022-07-23T05:15:01;101566.22;;;16.88;96.90
46211;BME280;52144;48.040;-1.594;2022-07-23T05:17:28;101578.28;;;16.81;96.94
46211;BME280;52144;48.040;-1.594;2022-07-23T05:19:56;101578.34;;;16.79;98.44
46211;BME280;52144;48.040;-1.594;2022-07-23T05:22:26;101566.34;;;17.01;96.55
46211;BME280;52144;48.040;-1.594;2022-07-23T05:24:56;101576.22;;;17.16;95.37
46211;BME280;52144;48.040;-1.594;2022-07-23T05:27:24;101575.84;;;17.22;95.78
46211;BME280;52144;48.040;-1.594;2022-07-23T05:29:51;101578.34;;;16.79;99.36
46211;BME280;52144;48.040;-1.594;2022-07-23T05:32:19;101575.34;;;17.16;96.60
46211;BME280;52144;48.040;-1.594;2022-07-23T05:34:47;101589.06;;;17.11;97.38
46211;BME280;52144;48.040;-1.594;2022-07-23T05:37:15;101579.38;;;17.23;95.44
46211;BME280;52144;48.040;-1.594;2022-07-23T05:39:42;101584.31;;;17.31;95.59
46211;BME280;52144;48.040;-1.594;2022-07-23T05:42:12;101589.19;;;17.10;96.60
46211;BME280;52144;48.040;-1.594;2022-07-23T05:44:39;101595.81;;;17.49;94.83
46211;BME280;52144;48.040;-1.594;2022-07-23T05:47:07;101595.69;;;17.50;95.31
46211;BME280;52144;48.040;-1.594;2022-07-23T05:49:37;101593.88;;;17.36;97.60
46211;BME280;52144;48.040;-1.594;2022-07-23T05:52:06;101604.09;;;17.60;95.05
46211;BME280;52144;48.040;-1.594;2022-07-23T05:54:34;101601.69;;;17.70;93.78
46211;BME280;52144;48.040;-1.594;2022-07-23T05:57:02;101608.31;;;17.19;97.51
46211;BME280;52144;48.040;-1.594;2022-07-23T05:59:31;101608.13;;;16.92;99.20
46211;BME280;52144;48.040;-1.594;2022-07-23T06:01:59;101613.25;;;16.97;100.00
46211;BME280;52144;48.040;-1.594;2022-07-23T06:04:27;101604.72;;;17.35;99.35
46211;BME280;52144;48.040;-1.594;2022-07-23T06:06:55;101602.22;;;17.46;97.05
46211;BME280;52144;48.040;-1.594;2022-07-23T06:09:23;101604.41;;;16.95;100.00
46211;BME280;52144;48.040;-1.594;2022-07-23T06:11:50;101603.47;;;17.26;100.00
46211;BME280;52144;48.040;-1.594;2022-07-23T06:14:18;101603.00;;;17.48;99.79
46211;BME280;52144;48.040;-1.594;2022-07-23T06:16:47;101608.09;;;17.83;96.27
46211;BME280;52144;48.040;-1.594;2022-07-23T06:19:15;101606.06;;;18.01;95.51
46211;BME280;52144;48.040;-1.594;2022-07-23T06:21:43;101612.03;;;18.06;94.63
46211;BME280;52144;48.040;-1.594;2022-07-23T06:24:13;101609.78;;;17.55;97.63
46211;BME280;52144;48.040;-1.594;2022-07-23T06:26:41;101611.28;;;17.45;100.00
46211;BME280;52144;48.040;-1.594;2022-07-23T06:29:09;101609.03;;;17.82;97.92
46211;BME280;52144;48.040;-1.594;2022-07-23T06:31:37;101614.56;;;17.64;100.00
46211;BME280;52144;48.040;-1.594;2022-07-23T06:34:06;101622.34;;;18.14;96.64
46211;BME280;52144;48.040;-1.594;2022-07-23T06:36:34;101625.81;;;17.87;98.11
46211;BME280;52144;48.040;-1.594;2022-07-23T06:39:02;101621.84;;;17.34;100.00
46211;BME280;52144;48.040;-1.594;2022-07-23T06:41:31;101621.50;;;17.69;100.00
46211;BME280;52144;48.040;-1.594;2022-07-23T06:43:59;101624.41;;;17.80;99.46
46211;BME280;52144;48.040;-1.594;2022-07-23T06:46:26;101628.59;;;18.14;99.15
46211;BME280;52144;48.040;-1.594;2022-07-23T06:48:54;101627.03;;;18.39;97.00
46211;BME280;52144;48.040;-1.594;2022-07-23T06:51:23;101629.53;;;18.56;96.72
46211;BME280;52144;48.040;-1.594;2022-07-23T06:53:51;101630.81;;;18.36;97.16
46211;BME280;52144;48.040;-1.594;2022-07-23T06:56:19;101633.13;;;18.28;99.70
46211;BME280;52144;48.040;-1.594;2022-07-23T06:58:47;101635.09;;;18.95;94.65
46211;BME280;52144;48.040;-1.594;2022-07-23T07:01:15;101633.69;;;19.29;93.28
46211;BME280;52144;48.040;-1.594;2022-07-23T07:03:43;101633.47;;;19.19;92.91
46211;BME280;52144;48.040;-1.594;2022-07-23T07:06:11;101637.25;;;18.90;95.46
46211;BME280;52144;48.040;-1.594;2022-07-23T07:08:40;101641.78;;;18.89;95.21
46211;BME280;52144;48.040;-1.594;2022-07-23T07:11:09;101639.69;;;19.47;93.89
46211;BME280;52144;48.040;-1.594;2022-07-23T07:13:37;101637.31;;;19.68;91.57
46211;BME280;52144;48.040;-1.594;2022-07-23T07:16:06;101648.84;;;19.32;93.56
46211;BME280;52144;48.040;-1.594;2022-07-23T07:18:34;101653.28;;;18.64;97.24
46211;BME280;52144;48.040;-1.594;2022-07-23T07:21:02;101639.28;;;19.13;96.38
46211;BME280;52144;48.040;-1.594;2022-07-23T07:23:29;101642.09;;;19.64;93.12
46211;BME280;52144;48.040;-1.594;2022-07-23T07:25:59;101640.47;;;20.00;91.25
46211;BME280;52144;48.040;-1.594;2022-07-23T07:28:27;101646.13;;;19.84;92.34
46211;BME280;52144;48.040;-1.594;2022-07-23T07:30:55;101651.09;;;19.78;92.12
46211;BME280;52144;48.040;-1.594;2022-07-23T07:33:22;101649.78;;;19.96;91.09
46211;BME280;52144;48.040;-1.594;2022-07-23T07:35:50;101642.53;;;19.84;91.97
46211;BME280;52144;48.040;-1.594;2022-07-23T07:38:18;101645.09;;;20.50;89.63
46211;BME280;52144;48.040;-1.594;2022-07-23T07:40:46;101650.72;;;20.47;87.92
46211;BME280;52144;48.040;-1.594;2022-07-23T07:43:15;101651.69;;;20.58;87.44
46211;BME280;52144;48.040;-1.594;2022-07-23T07:45:43;101652.19;;;20.76;87.26
46211;BME280;52144;48.040;-1.594;2022-07-23T07:48:11;101662.72;;;20.68;86.04
46211;BME280;52144;48.040;-1.594;2022-07-23T07:50:39;101660.19;;;20.02;89.87
46211;BME280;52144;48.040;-1.594;2022-07-23T07:53:07;101659.38;;;20.52;87.22
46211;BME280;52144;48.040;-1.594;2022-07-23T07:55:35;101664.91;;;21.11;85.99
46211;BME280;52144;48.040;-1.594;2022-07-23T07:58:03;101659.88;;;20.57;87.88
46211;BME280;52144;48.040;-1.594;2022-07-23T08:00:33;101661.56;;;20.83;86.23
46211;BME280;52144;48.040;-1.594;2022-07-23T08:03:00;101659.38;;;20.52;87.59
46211;BME280;52144;48.040;-1.594;2022-07-23T08:05:30;101668.28;;;20.78;85.92
46211;BME280;52144;48.040;-1.594;2022-07-23T08:07:58;101661.50;;;21.20;83.91
46211;BME280;52144;48.040;-1.594;2022-07-23T08:10:27;101666.06;;;21.44;82.66
46211;BME280;52144;48.040;-1.594;2022-07-23T08:12:56;101665.22;;;21.55;82.17
46211;BME280;52144;48.040;-1.594;2022-07-23T08:15:25;101659.84;;;21.77;81.41
46211;BME280;52144;48.040;-1.594;2022-07-23T08:17:56;101657.31;;;21.98;80.49
46211;BME280;52144;48.040;-1.594;2022-07-23T08:20:25;101662.91;;;21.61;82.04
46211;BME280;52144;48.040;-1.594;2022-07-23T08:22:57;101662.00;;;21.96;81.25
46211;BME280;52144;48.040;-1.594;2022-07-23T08:25:26;101658.25;;;21.75;80.75
46211;BME280;52144;48.040;-1.594;2022-07-23T08:27:55;101658.31;;;22.20;78.99
46211;BME280;52144;48.040;-1.594;2022-07-23T08:30:23;101663.50;;;22.34;77.50
46211;BME280;52144;48.040;-1.594;2022-07-23T08:32:52;101663.25;;;22.49;78.21
46211;BME280;52144;48.040;-1.594;2022-07-23T08:35:28;101668.94;;;22.46;77.04
46211;BME280;52144;48.040;-1.594;2022-07-23T08:37:57;101671.91;;;22.54;77.67
46211;BME280;52144;48.040;-1.594;2022-07-23T08:40:26;101669.91;;;22.22;77.10
46211;BME280;52144;48.040;-1.594;2022-07-23T08:42:54;101675.09;;;22.59;77.10
46211;BME280;52144;48.040;-1.594;2022-07-23T08:45:24;101669.22;;;22.97;75.30
46211;BME280;52144;48.040;-1.594;2022-07-23T08:47:54;101679.81;;;23.12;73.79
46211;BME280;52144;48.040;-1.594;2022-07-23T08:50:23;101677.47;;;22.96;74.50
46211;BME280;52144;48.040;-1.594;2022-07-23T08:52:53;101671.97;;;22.86;75.35
46211;BME280;52144;48.040;-1.594;2022-07-23T08:55:23;101677.25;;;22.99;75.37
46211;BME280;52144;48.040;-1.594;2022-07-23T08:57:51;101677.47;;;22.96;74.84
46211;BME280;52144;48.040;-1.594;2022-07-23T09:00:21;101675.81;;;22.72;73.81
46211;BME280;52144;48.040;-1.594;2022-07-23T09:02:49;101676.34;;;23.42;73.53
46211;BME280;52144;48.040;-1.594;2022-07-23T09:05:18;101670.88;;;23.95;73.34
46211;BME280;52144;48.040;-1.594;2022-07-23T09:08:10;101667.59;;;24.22;67.82
46211;BME280;52144;48.040;-1.594;2022-07-23T09:10:49;101665.25;;;23.87;71.63
46211;BME280;52144;48.040;-1.594;2022-07-23T09:13:27;101663.25;;;24.20;70.34
46211;BME280;52144;48.040;-1.594;2022-07-23T09:15:57;101662.41;;;24.50;68.88
46211;BME280;52144;48.040;-1.594;2022-07-23T09:18:44;101662.94;;;23.82;68.44
46211;BME280;52144;48.040;-1.594;2022-07-23T09:21:21;101665.47;;;23.21;69.88
46211;BME280;52144;48.040;-1.594;2022-07-23T09:23:53;101662.19;;;22.83;71.55
46211;BME280;52144;48.040;-1.594;2022-07-23T09:26:28;101662.81;;;22.87;72.24
46211;BME280;52144;48.040;-1.594;2022-07-23T09:29:05;101663.72;;;22.65;71.32
46211;BME280;52144;48.040;-1.594;2022-07-23T09:31:43;101665.38;;;23.11;71.59
46211;BME280;52144;48.040;-1.594;2022-07-23T09:34:14;101668.16;;;23.74;69.10
46211;BME280;52144;48.040;-1.594;2022-07-23T09:36:42;101664.03;;;24.01;64.71
46211;BME280;52144;48.040;-1.594;2022-07-23T09:39:12;101672.38;;;23.46;65.46
46211;BME280;52144;48.040;-1.594;2022-07-23T09:41:42;101667.91;;;24.29;62.68
46211;BME280;52144;48.040;-1.594;2022-07-23T09:44:15;101666.91;;;24.30;62.03
46211;BME280;52144;48.040;-1.594;2022-07-23T09:46:45;101663.66;;;24.96;61.04
46211;BME280;52144;48.040;-1.594;2022-07-23T09:49:18;101665.13;;;25.10;61.42
46211;BME280;52144;48.040;-1.594;2022-07-23T09:51:52;101662.97;;;25.04;59.57
46211;BME280;52144;48.040;-1.594;2022-07-23T09:54:32;101658.66;;;25.11;62.05
46211;BME280;52144;48.040;-1.594;2022-07-23T09:57:04;101664.97;;;24.92;59.82
46211;BME280;52144;48.040;-1.594;2022-07-23T09:59:36;101662.03;;;24.65;58.88
46211;BME280;52144;48.040;-1.594;2022-07-23T10:02:05;101654.84;;;24.54;58.87
46211;BME280;52144;48.040;-1.594;2022-07-23T10:04:35;101652.63;;;24.48;58.00
46211;BME280;52144;48.040;-1.594;2022-07-23T10:07:06;101658.28;;;24.56;59.15
46211;BME280;52144;48.040;-1.594;2022-07-23T10:09:37;101663.94;;;24.83;61.62
46211;BME280;52144;48.040;-1.594;2022-07-23T10:12:10;101659.78;;;24.99;57.91
46211;BME280;52144;48.040;-1.594;2022-07-23T10:14:49;101661.25;;;24.22;59.61
46211;BME280;52144;48.040;-1.594;2022-07-23T10:17:17;101653.72;;;24.66;61.98
46211;BME280;52144;48.040;-1.594;2022-07-23T10:19:45;101650.75;;;24.98;59.52
46211;BME280;52144;48.040;-1.594;2022-07-23T10:22:19;101652.88;;;24.75;58.62
46211;BME280;52144;48.040;-1.594;2022-07-23T10:25:08;101648.66;;;24.21;60.22
46211;BME280;52144;48.040;-1.594;2022-07-23T10:27:58;101642.56;;;24.69;59.75
46211;BME280;52144;48.040;-1.594;2022-07-23T10:30:34;101644.25;;;24.70;59.09
46211;BME280;52144;48.040;-1.594;2022-07-23T10:33:17;101647.22;;;25.27;58.80
46211;BME280;52144;48.040;-1.594;2022-07-23T10:35:53;101638.19;;;25.27;57.00
46211;BME280;52144;48.040;-1.594;2022-07-23T10:38:27;101642.03;;;24.45;60.15
46211;BME280;52144;48.040;-1.594;2022-07-23T10:40:59;101647.28;;;24.06;60.03
46211;BME280;52144;48.040;-1.594;2022-07-23T10:43:28;101646.44;;;24.86;59.09
46211;BME280;52144;48.040;-1.594;2022-07-23T10:46:23;101653.13;;;24.53;58.62
46211;BME280;52144;48.040;-1.594;2022-07-23T10:49:28;101643.06;;;25.42;58.02
46211;BME280;52144;48.040;-1.594;2022-07-23T10:52:20;101635.53;;;25.54;56.55
46211;BME280;52144;48.040;-1.594;2022-07-23T10:54:49;101647.66;;;26.09;54.45
46211;BME280;52144;48.040;-1.594;2022-07-23T10:57:19;101639.88;;;26.14;54.67
46211;BME280;52144;48.040;-1.594;2022-07-23T11:00:18;101644.81;;;26.38;53.70
46211;BME280;52144;48.040;-1.594;2022-07-23T11:02:48;101640.88;;;25.46;54.96
46211;BME280;52144;48.040;-1.594;2022-07-23T11:05:18;101634.06;;;25.79;54.37
46211;BME280;52144;48.040;-1.594;2022-07-23T11:08:12;101639.56;;;25.60;54.42
46211;BME280;52144;48.040;-1.594;2022-07-23T11:10:45;101633.53;;;25.17;55.82
46211;BME280;52144;48.040;-1.594;2022-07-23T11:13:40;101633.50;;;25.95;54.06
46211;BME280;52144;48.040;-1.594;2022-07-23T11:16:16;101635.63;;;25.82;52.80
46211;BME280;52144;48.040;-1.594;2022-07-23T11:19:05;101636.72;;;26.09;54.54
46211;BME280;52144;48.040;-1.594;2022-07-23T11:21:44;101635.63;;;26.57;53.43
46211;BME280;52144;48.040;-1.594;2022-07-23T11:24:15;101636.97;;;26.15;53.36
46211;BME280;52144;48.040;-1.594;2022-07-23T11:26:46;101626.66;;;26.09;54.06
46211;BME280;52144;48.040;-1.594;2022-07-23T11:29:46;101633.28;;;26.07;53.51
46211;BME280;52144;48.040;-1.594;2022-07-23T11:32:39;101630.78;;;25.76;53.47
46211;BME280;52144;48.040;-1.594;2022-07-23T11:35:23;101632.41;;;25.49;54.73
46211;BME280;52144;48.040;-1.594;2022-07-23T11:37:54;101632.66;;;26.50;54.08
46211;BME280;52144;48.040;-1.594;2022-07-23T11:40:29;101623.13;;;27.00;50.60
46211;BME280;52144;48.040;-1.594;2022-07-23T11:42:59;101624.00;;;26.27;49.16
46211;BME280;52144;48.040;-1.594;2022-07-23T11:45:32;101625.38;;;26.69;51.26
46211;BME280;52144;48.040;-1.594;2022-07-23T11:48:01;101616.97;;;25.77;50.80
46211;BME280;52144;48.040;-1.594;2022-07-23T11:50:30;101622.84;;;25.92;51.85
46211;BME280;52144;48.040;-1.594;2022-07-23T11:52:58;101615.13;;;26.15;51.38
46211;BME280;52144;48.040;-1.594;2022-07-23T11:55:26;101612.06;;;27.01;50.46
46211;BME280;52144;48.040;-1.594;2022-07-23T11:57:55;101604.38;;;27.23;48.13
46211;BME280;52144;48.040;-1.594;2022-07-23T12:00:27;101606.75;;;27.36;49.12
46211;BME280;52144;48.040;-1.594;2022-07-23T12:02:57;101609.41;;;27.28;48.35
46211;BME280;52144;48.040;-1.594;2022-07-23T12:05:29;101602.25;;;26.63;49.48
46211;BME280;52144;48.040;-1.594;2022-07-23T12:07:58;101607.75;;;27.35;48.08
46211;BME280;52144;48.040;-1.594;2022-07-23T12:10:27;101602.59;;;27.32;48.29
46211;BME280;52144;48.040;-1.594;2022-07-23T12:12:57;101607.63;;;27.63;49.62
46211;BME280;52144;48.040;-1.594;2022-07-23T12:15:27;101594.31;;;27.50;48.63
46211;BME280;52144;48.040;-1.594;2022-07-23T12:18:00;101600.13;;;26.57;48.38
46211;BME280;52144;48.040;-1.594;2022-07-23T12:20:29;101598.75;;;27.25;48.57
46211;BME280;52144;48.040;-1.594;2022-07-23T12:22:59;101601.25;;;27.36;47.49
46211;BME280;52144;48.040;-1.594;2022-07-23T12:25:29;101598.38;;;28.24;46.92
46211;BME280;52144;48.040;-1.594;2022-07-23T12:28:00;101594.03;;;28.48;45.91
46211;BME280;52144;48.040;-1.594;2022-07-23T12:30:30;101586.53;;;28.50;45.37
46211;BME280;52144;48.040;-1.594;2022-07-23T12:33:03;101583.16;;;28.80;46.37
46211;BME280;52144;48.040;-1.594;2022-07-23T12:35:34;101586.56;;;28.83;45.48
46211;BME280;52144;48.040;-1.594;2022-07-23T12:38:05;101586.13;;;27.76;45.99
46211;BME280;52144;48.040;-1.594;2022-07-23T12:40:35;101580.72;;;28.69;45.87
46211;BME280;52144;48.040;-1.594;2022-07-23T12:43:05;101574.59;;;29.16;45.42
46211;BME280;52144;48.040;-1.594;2022-07-23T12:45:46;101577.69;;;29.30;44.63
46211;BME280;52144;48.040;-1.594;2022-07-23T12:48:23;101581.81;;;29.42;44.51
46211;BME280;52144;48.040;-1.594;2022-07-23T12:50:54;101574.56;;;29.66;45.04
46211;BME280;52144;48.040;-1.594;2022-07-23T12:53:24;101577.34;;;29.25;43.50